Time;durP1;ratioP1;P1;durP2;ratioP2;P2;SDS_P1;SDS_P2;PMS_P1;PMS_P2;Temp;Humidity;BMP_temperature;BMP_pressure;BME280_temperature;BME280_humidity;BME280_pressure;Samples;Min_cycle;Max_cycle;Signal;HPM_P1;HPM_P2
2022/11/20 00:00:24;;;;;;;31.00;22.77;;;;;;;;;;5053374;28;20025;-65
2022/11/20 00:02:49;;;;;;;34.88;22.92;;;;;;;;;;5054201;28;20045;-65
2022/11/20 00:05:14;;;;;;;29.85;23.85;;;;;;;;;;5052834;28;20013;-65
2022/11/20 00:07:40;;;;;;;29.95;23.40;;;;;;;;;;5054238;28;20013;-65
2022/11/20 00:10:05;;;;;;;29.60;21.58;;;;;;;;;;5053106;28;20032;-65
2022/11/20 00:12:31;;;;;;;28.20;21.50;;;;;;;;;;5053797;28;20105;-65
2022/11/20 00:14:56;;;;;;;30.38;21.95;;;;;;;;;;5052690;28;20100;-65
2022/11/20 00:17:21;;;;;;;31.88;21.27;;;;;;;;;;5053768;28;20425;-65
2022/11/20 00:19:46;;;;;;;30.33;22.10;;;;;;;;;;5051390;28;20368;-65
2022/11/20 00:22:11;;;;;;;38.17;23.10;;;;;;;;;;5050057;28;20019;-65
2022/11/20 00:24:37;;;;;;;27.80;21.73;;;;;;;;;;5051136;28;20108;-65
2022/11/20 00:27:02;;;;;;;31.70;21.63;;;;;;;;;;5050632;28;20028;-66
2022/11/20 00:29:27;;;;;;;28.85;21.20;;;;;;;;;;5052031;28;20016;-65
2022/11/20 00:31:52;;;;;;;24.38;20.40;;;;;;;;;;5049746;28;20012;-65
2022/11/20 00:34:17;;;;;;;26.97;20.57;;;;;;;;;;5052875;28;20359;-65
2022/11/20 00:36:43;;;;;;;30.40;21.33;;;;;;;;;;5052018;28;20795;-65
2022/11/20 00:39:08;;;;;;;27.85;20.38;;;;;;;;;;5053781;28;20467;-65
2022/11/20 00:41:33;;;;;;;29.50;22.47;;;;;;;;;;5053601;28;20017;-65
2022/11/20 00:43:58;;;;;;;27.38;20.98;;;;;;;;;;5050875;28;21104;-66
2022/11/20 00:46:25;;;;;;;28.88;20.23;;;;;;;;;;5052517;28;20017;-65
2022/11/20 00:48:50;;;;;;;29.02;21.23;;;;;;;;;;5053390;28;20499;-65
2022/11/20 00:51:17;;;;;;;29.05;21.77;;;;;;;;;;5052713;28;20103;-65
2022/11/20 00:53:42;;;;;;;29.52;22.65;;;;;;;;;;5053154;28;20548;-65
2022/11/20 00:56:10;;;;;;;31.67;21.75;;;;;;;;;;5031074;28;20037;-65
2022/11/20 00:58:36;;;;;;;26.02;19.73;;;;;;;;;;5033684;28;20034;-65
2022/11/20 01:01:04;;;;;;;32.78;20.75;;;;;;;;;;5047534;28;20052;-65
2022/11/20 01:03:34;;;;;;;28.58;20.83;;;;;;;;;;5034225;28;20057;-65
2022/11/20 01:06:01;;;;;;;26.55;21.13;;;;;;;;;;5033601;28;20075;-65
2022/11/20 01:08:29;;;;;;;29.05;22.00;;;;;;;;;;5034203;28;20519;-65
2022/11/20 01:10:58;;;;;;;27.75;19.88;;;;;;;;;;5032887;28;20040;-65
2022/11/20 01:13:38;;;;;;;30.65;20.45;;;;;;;;;;5040630;28;20086;-65
2022/11/20 01:16:04;;;;;;;27.98;19.98;;;;;;;;;;5052239;28;20020;-65
2022/11/20 01:18:30;;;;;;;30.42;19.75;;;;;;;;;;5052104;28;20087;-65
2022/11/20 01:20:55;;;;;;;32.35;21.30;;;;;;;;;;5047849;28;20471;-65
2022/11/20 01:23:20;;;;;;;30.13;21.30;;;;;;;;;;5033883;28;20408;-65
2022/11/20 01:25:45;;;;;;;25.50;20.60;;;;;;;;;;5033556;28;20040;-65
2022/11/20 01:28:10;;;;;;;28.85;20.17;;;;;;;;;;5033448;28;20045;-65
2022/11/20 01:30:36;;;;;;;28.23;20.58;;;;;;;;;;5047833;28;20028;-65
2022/11/20 01:33:01;;;;;;;26.55;21.20;;;;;;;;;;5052999;28;20028;-65
2022/11/20 01:35:26;;;;;;;30.15;20.50;;;;;;;;;;5051619;28;20103;-65
2022/11/20 01:37:51;;;;;;;30.25;19.95;;;;;;;;;;5052417;28;20021;-65
2022/11/20 01:40:17;;;;;;;37.60;21.55;;;;;;;;;;5048582;28;20024;-65
2022/11/20 01:45:48;;;;;;;29.88;21.10;;;;;;;;;;5042505;28;20078;-65
2022/11/20 01:48:14;;;;;;;29.85;21.50;;;;;;;;;;5050304;28;20037;-65
2022/11/20 01:50:40;;;;;;;29.17;20.40;;;;;;;;;;5051585;28;20495;-66
2022/11/20 01:53:06;;;;;;;27.85;20.52;;;;;;;;;;5051929;28;20027;-65
2022/11/20 01:55:34;;;;;;;32.58;21.38;;;;;;;;;;5040393;28;20364;-65
2022/11/20 01:58:01;;;;;;;27.58;21.00;;;;;;;;;;5038661;28;20032;-65
2022/11/20 02:00:26;;;;;;;27.95;18.65;;;;;;;;;;5052661;28;20032;-64
2022/11/20 02:02:54;;;;;;;30.42;21.60;;;;;;;;;;5052075;28;20470;-65
2022/11/20 02:05:38;;;;;;;30.58;21.13;;;;;;;;;;5052159;28;20017;-65
2022/11/20 02:08:05;;;;;;;30.80;22.10;;;;;;;;;;5032955;28;20018;-65
2022/11/20 02:10:30;;;;;;;30.77;22.52;;;;;;;;;;5032858;28;20055;-65
2022/11/20 02:15:40;;;;;;;33.08;22.40;;;;;;;;;;5031725;28;20071;-65
2022/11/20 02:18:05;;;;;;;28.25;21.15;;;;;;;;;;5044015;28;20036;-65
2022/11/20 02:20:31;;;;;;;27.75;20.58;;;;;;;;;;5034425;28;20025;-65
2022/11/20 02:23:11;;;;;;;27.65;20.92;;;;;;;;;;5032719;28;20017;-65
2022/11/20 02:25:37;;;;;;;29.67;22.92;;;;;;;;;;5032944;28;20027;-65
2022/11/20 02:28:03;;;;;;;31.30;23.20;;;;;;;;;;5046194;28;20021;-65
2022/11/20 02:30:28;;;;;;;33.60;21.95;;;;;;;;;;5032889;28;20040;-65
2022/11/20 02:32:53;;;;;;;28.15;21.35;;;;;;;;;;5034150;28;20018;-65
2022/11/20 02:35:19;;;;;;;30.63;23.60;;;;;;;;;;5033587;28;20071;-66
2022/11/20 02:37:45;;;;;;;29.73;21.53;;;;;;;;;;5033448;28;20456;-65
2022/11/20 02:40:10;;;;;;;31.08;21.65;;;;;;;;;;5051602;28;20279;-65
2022/11/20 02:42:36;;;;;;;26.20;21.35;;;;;;;;;;5051894;28;20075;-65
2022/11/20 02:45:01;;;;;;;26.23;20.42;;;;;;;;;;5051354;28;20041;-65
2022/11/20 02:47:26;;;;;;;26.17;20.63;;;;;;;;;;5040698;28;20033;-65
2022/11/20 02:49:52;;;;;;;32.80;21.40;;;;;;;;;;5033554;28;20026;-65
2022/11/20 02:52:17;;;;;;;27.98;21.20;;;;;;;;;;5032553;28;20076;-65
2022/11/20 02:54:42;;;;;;;32.58;22.38;;;;;;;;;;5032949;28;20020;-65
2022/11/20 02:57:07;;;;;;;27.52;22.33;;;;;;;;;;5032457;28;20036;-65
2022/11/20 02:59:33;;;;;;;33.88;22.85;;;;;;;;;;5032906;28;20381;-65
2022/11/20 03:01:58;;;;;;;31.25;21.52;;;;;;;;;;5032384;28;20029;-65
2022/11/20 03:04:23;;;;;;;34.55;21.02;;;;;;;;;;5032578;28;20024;-65
2022/11/20 03:06:48;;;;;;;31.88;22.35;;;;;;;;;;5032902;28;20028;-65
2022/11/20 03:09:13;;;;;;;27.70;20.75;;;;;;;;;;5032484;28;20037;-65
2022/11/20 03:11:39;;;;;;;33.53;21.95;;;;;;;;;;5033029;28;20032;-65
2022/11/20 03:14:04;;;;;;;26.95;20.70;;;;;;;;;;5034143;28;20053;-65
2022/11/20 03:16:30;;;;;;;28.20;21.70;;;;;;;;;;5032765;28;20017;-65
2022/11/20 03:18:55;;;;;;;28.88;22.02;;;;;;;;;;5035140;28;20082;-65
2022/11/20 03:21:20;;;;;;;27.75;20.50;;;;;;;;;;5033744;28;20366;-65
2022/11/20 03:23:46;;;;;;;26.70;20.83;;;;;;;;;;5034885;28;20020;-65
2022/11/20 03:26:11;;;;;;;29.45;19.98;;;;;;;;;;5032039;28;20028;-65
2022/11/20 03:28:37;;;;;;;26.23;20.45;;;;;;;;;;5036375;28;20044;-65
2022/11/20 03:31:13;;;;;;;28.63;20.65;;;;;;;;;;5037577;28;20013;-65
2022/11/20 03:33:39;;;;;;;28.40;21.60;;;;;;;;;;5038543;28;20036;-65
2022/11/20 03:36:06;;;;;;;29.25;20.40;;;;;;;;;;5037261;28;20468;-65
2022/11/20 03:38:31;;;;;;;28.77;21.25;;;;;;;;;;5049922;28;20013;-65
2022/11/20 03:41:00;;;;;;;27.73;21.38;;;;;;;;;;5061792;28;20031;-65
2022/11/20 03:43:26;;;;;;;26.05;20.13;;;;;;;;;;5054538;28;20044;-65
2022/11/20 03:45:51;;;;;;;32.67;22.05;;;;;;;;;;5053690;28;20025;-65
2022/11/20 03:48:16;;;;;;;26.23;20.35;;;;;;;;;;5049521;28;20100;-65
2022/11/20 03:50:41;;;;;;;28.15;21.00;;;;;;;;;;5034397;28;20017;-65
2022/11/20 03:53:06;;;;;;;26.63;20.17;;;;;;;;;;5050651;28;20482;-65
2022/11/20 03:55:32;;;;;;;33.07;20.70;;;;;;;;;;5054848;28;20371;-65
2022/11/20 03:57:57;;;;;;;28.02;20.80;;;;;;;;;;5054548;28;20769;-65
2022/11/20 04:00:22;;;;;;;25.27;20.52;;;;;;;;;;5054628;28;20100;-65
2022/11/20 04:02:47;;;;;;;27.77;20.20;;;;;;;;;;5054509;28;20056;-65
2022/11/20 04:05:13;;;;;;;29.20;22.60;;;;;;;;;;5054748;28;20052;-65
2022/11/20 04:07:38;;;;;;;26.75;19.17;;;;;;;;;;5052620;28;20024;-65
2022/11/20 04:10:03;;;;;;;30.38;21.10;;;;;;;;;;5054904;28;20506;-65
2022/11/20 04:12:31;;;;;;;27.75;21.00;;;;;;;;;;5052907;28;20075;-66
2022/11/20 04:14:57;;;;;;;28.75;20.27;;;;;;;;;;5054155;28;20071;-65
2022/11/20 04:17:22;;;;;;;27.35;20.70;;;;;;;;;;5052005;28;20017;-65
2022/11/20 04:19:47;;;;;;;30.90;21.83;;;;;;;;;;5046352;28;20029;-65
2022/11/20 04:22:13;;;;;;;38.70;21.85;;;;;;;;;;5054446;28;20136;-65
2022/11/20 04:24:38;;;;;;;33.90;21.27;;;;;;;;;;5049208;28;20032;-65
2022/11/20 04:27:03;;;;;;;26.52;19.83;;;;;;;;;;5046184;28;20031;-65
2022/11/20 04:29:28;;;;;;;26.23;19.55;;;;;;;;;;5035708;28;20018;-65
2022/11/20 04:31:54;;;;;;;31.42;20.88;;;;;;;;;;5034618;28;20087;-65
2022/11/20 04:34:19;;;;;;;25.63;20.38;;;;;;;;;;5052565;28;20013;-65
2022/11/20 04:36:44;;;;;;;29.13;20.58;;;;;;;;;;5042796;28;20515;-65
2022/11/20 04:39:14;;;;;;;27.42;20.27;;;;;;;;;;5047611;28;20553;-65
2022/11/20 04:41:39;;;;;;;27.88;19.45;;;;;;;;;;5049377;28;20028;-65
2022/11/20 04:44:05;;;;;;;30.17;20.20;;;;;;;;;;5049614;28;20401;-65
2022/11/20 04:46:37;;;;;;;28.60;19.95;;;;;;;;;;5033665;28;20021;-65
2022/11/20 04:49:03;;;;;;;29.15;20.65;;;;;;;;;;5000371;28;20408;-65
2022/11/20 04:51:28;;;;;;;26.58;19.77;;;;;;;;;;5026905;28;20471;-65
2022/11/20 04:53:54;;;;;;;26.63;20.33;;;;;;;;;;5041099;28;20020;-65
2022/11/20 04:56:19;;;;;;;27.02;19.98;;;;;;;;;;5053465;28;20020;-65
2022/11/20 04:58:44;;;;;;;27.02;21.02;;;;;;;;;;5053048;28;20025;-65
2022/11/20 05:01:20;;;;;;;27.73;19.88;;;;;;;;;;5041646;28;20466;-65
2022/11/20 05:03:45;;;;;;;29.98;20.75;;;;;;;;;;5054310;28;20024;-65
2022/11/20 05:06:11;;;;;;;28.75;19.45;;;;;;;;;;5039898;28;20033;-65
2022/11/20 05:08:37;;;;;;;26.75;19.10;;;;;;;;;;5053320;28;20013;-65
2022/11/20 05:11:03;;;;;;;24.63;20.10;;;;;;;;;;5040614;28;20083;-65
2022/11/20 05:13:28;;;;;;;25.02;18.80;;;;;;;;;;5043950;28;20021;-65
2022/11/20 05:15:53;;;;;;;27.20;19.00;;;;;;;;;;5034296;28;20013;-65
2022/11/20 05:18:19;;;;;;;29.45;20.80;;;;;;;;;;5035942;28;20030;-65
2022/11/20 05:20:44;;;;;;;31.35;21.85;;;;;;;;;;5049212;28;20028;-65
2022/11/20 05:23:09;;;;;;;28.90;22.70;;;;;;;;;;5034029;28;20113;-65
2022/11/20 05:25:34;;;;;;;28.77;21.50;;;;;;;;;;5033492;28;20052;-65
2022/11/20 05:28:00;;;;;;;30.38;21.80;;;;;;;;;;5035156;28;20014;-65
2022/11/20 05:30:25;;;;;;;26.75;20.63;;;;;;;;;;5029232;28;20025;-65
2022/11/20 05:32:50;;;;;;;31.60;22.42;;;;;;;;;;5034092;28;20021;-65
2022/11/20 05:35:15;;;;;;;28.67;21.73;;;;;;;;;;5034151;28;20574;-65
2022/11/20 05:37:40;;;;;;;29.67;22.33;;;;;;;;;;5034273;28;20483;-65
2022/11/20 05:40:06;;;;;;;34.65;23.67;;;;;;;;;;5036887;28;20096;-65
2022/11/20 05:42:31;;;;;;;38.70;26.10;;;;;;;;;;5052715;28;20056;-65
2022/11/20 05:45:01;;;;;;;38.30;25.92;;;;;;;;;;5052445;28;20047;-65
2022/11/20 05:47:27;;;;;;;45.65;27.20;;;;;;;;;;5052717;28;20550;-65
2022/11/20 05:49:52;;;;;;;45.92;27.50;;;;;;;;;;5052744;28;20028;-65
2022/11/20 05:52:17;;;;;;;43.67;29.83;;;;;;;;;;5041220;28;20484;-64
2022/11/20 05:54:43;;;;;;;46.08;29.95;;;;;;;;;;5045391;28;20021;-65
2022/11/20 05:57:08;;;;;;;53.70;31.05;;;;;;;;;;5046517;28;20438;-65
2022/11/20 05:59:33;;;;;;;51.65;32.45;;;;;;;;;;5030544;28;20029;-65
2022/11/20 06:01:58;;;;;;;55.10;32.38;;;;;;;;;;5033070;28;20021;-65
2022/11/20 06:04:24;;;;;;;44.92;30.25;;;;;;;;;;5033290;28;20018;-65
2022/11/20 06:06:49;;;;;;;44.17;30.05;;;;;;;;;;5033386;28;20100;-65
2022/11/20 06:09:14;;;;;;;46.10;33.65;;;;;;;;;;5043517;28;20017;-65
2022/11/20 06:11:39;;;;;;;49.78;29.48;;;;;;;;;;5035468;28;20071;-66
2022/11/20 06:14:04;;;;;;;53.25;33.05;;;;;;;;;;5051250;28;20066;-65
2022/11/20 06:16:30;;;;;;;56.80;34.65;;;;;;;;;;5051240;28;20404;-65
2022/11/20 06:18:55;;;;;;;62.15;33.42;;;;;;;;;;5044041;28;20021;-65
2022/11/20 06:21:21;;;;;;;57.97;34.42;;;;;;;;;;5037053;28;20021;-65
2022/11/20 06:23:47;;;;;;;48.80;32.90;;;;;;;;;;5034185;28;20060;-65
2022/11/20 06:26:13;;;;;;;51.72;34.65;;;;;;;;;;5035614;28;20049;-65
2022/11/20 06:28:39;;;;;;;56.45;36.17;;;;;;;;;;5033491;28;20068;-65
2022/11/20 06:31:05;;;;;;;53.40;35.47;;;;;;;;;;5046440;28;20375;-65
2022/11/20 06:33:30;;;;;;;57.42;35.80;;;;;;;;;;5033565;28;20486;-65
2022/11/20 06:35:56;;;;;;;55.80;36.35;;;;;;;;;;5038661;28;20099;-65
2022/11/20 06:38:21;;;;;;;62.22;39.08;;;;;;;;;;5036800;28;20033;-65
2022/11/20 06:40:47;;;;;;;59.67;39.08;;;;;;;;;;5044484;28;20052;-65
2022/11/20 06:43:12;;;;;;;51.90;35.50;;;;;;;;;;5044922;28;20021;-65
2022/11/20 06:45:37;;;;;;;61.00;36.17;;;;;;;;;;5050727;28;20021;-65
2022/11/20 06:48:03;;;;;;;55.08;35.30;;;;;;;;;;5044545;28;20009;-65
2022/11/20 06:50:28;;;;;;;58.30;36.80;;;;;;;;;;5047732;28;20047;-67
2022/11/20 06:52:53;;;;;;;61.30;38.85;;;;;;;;;;5036819;28;20514;-65
2022/11/20 06:55:19;;;;;;;54.97;37.28;;;;;;;;;;5047766;28;20029;-65
2022/11/20 06:57:44;;;;;;;53.78;36.55;;;;;;;;;;5032182;28;20071;-65
2022/11/20 07:00:09;;;;;;;50.75;35.13;;;;;;;;;;5033889;28;20390;-64
2022/11/20 07:02:35;;;;;;;54.88;36.47;;;;;;;;;;5045863;28;20028;-64
2022/11/20 07:05:00;;;;;;;53.03;33.92;;;;;;;;;;5049827;28;20070;-64
2022/11/20 07:07:25;;;;;;;50.42;33.72;;;;;;;;;;5039771;28;20120;-64
2022/11/20 07:09:50;;;;;;;57.53;34.63;;;;;;;;;;5049172;28;20464;-65
2022/11/20 07:12:16;;;;;;;51.05;32.35;;;;;;;;;;5052819;28;20375;-64
2022/11/20 07:14:41;;;;;;;50.50;32.08;;;;;;;;;;5052523;28;20024;-64
2022/11/20 07:17:06;;;;;;;50.58;32.05;;;;;;;;;;5053867;28;20116;-65
2022/11/20 07:19:31;;;;;;;48.42;30.92;;;;;;;;;;5051634;28;20071;-65
2022/11/20 07:21:57;;;;;;;49.10;30.30;;;;;;;;;;5053643;28;20028;-65
2022/11/20 07:24:22;;;;;;;45.95;29.90;;;;;;;;;;5051288;28;20017;-65
2022/11/20 07:26:50;;;;;;;47.90;29.33;;;;;;;;;;5055285;28;20024;-65
2022/11/20 07:29:16;;;;;;;42.15;27.90;;;;;;;;;;5050045;28;20100;-64
2022/11/20 07:31:41;;;;;;;39.00;25.95;;;;;;;;;;5052492;28;20100;-65
2022/11/20 07:34:06;;;;;;;38.97;28.17;;;;;;;;;;5049585;28;20029;-65
2022/11/20 07:36:32;;;;;;;48.35;29.63;;;;;;;;;;5052619;28;20364;-64
2022/11/20 07:38:57;;;;;;;44.50;30.48;;;;;;;;;;5049460;28;20024;-65
2022/11/20 07:41:22;;;;;;;47.33;28.73;;;;;;;;;;5054990;28;20020;-65
2022/11/20 07:43:47;;;;;;;44.55;27.83;;;;;;;;;;5055070;28;20031;-65
2022/11/20 07:46:13;;;;;;;43.47;29.23;;;;;;;;;;5054775;28;20120;-65
2022/11/20 07:48:38;;;;;;;43.08;27.60;;;;;;;;;;5055058;28;20029;-65
2022/11/20 07:51:03;;;;;;;41.05;27.77;;;;;;;;;;5054308;28;20368;-64
2022/11/20 07:53:28;;;;;;;39.22;27.05;;;;;;;;;;5029802;28;20101;-65
2022/11/20 07:55:54;;;;;;;41.83;28.45;;;;;;;;;;5055034;28;20195;-65
2022/11/20 07:58:19;;;;;;;53.33;30.55;;;;;;;;;;5052811;28;20047;-64
2022/11/20 08:00:45;;;;;;;43.05;29.48;;;;;;;;;;5050779;28;20456;-65
2022/11/20 08:03:10;;;;;;;50.30;29.58;;;;;;;;;;5038384;28;20029;-67
2022/11/20 08:05:37;;;;;;;50.42;29.77;;;;;;;;;;5043533;28;20023;-67
2022/11/20 08:08:02;;;;;;;39.88;27.73;;;;;;;;;;5048859;28;20045;-66
2022/11/20 08:10:27;;;;;;;46.90;30.38;;;;;;;;;;5046987;28;20047;-66
2022/11/20 08:15:37;;;;;;;43.60;27.47;;;;;;;;;;5040029;28;20095;-67
2022/11/20 08:18:03;;;;;;;47.80;27.90;;;;;;;;;;5040103;28;20463;-66
2022/11/20 08:20:29;;;;;;;40.83;28.92;;;;;;;;;;5048885;28;20033;-65
2022/11/20 08:22:57;;;;;;;45.97;28.92;;;;;;;;;;5040242;28;20414;-65
2022/11/20 08:25:22;;;;;;;44.33;28.00;;;;;;;;;;5048721;28;20100;-65
2022/11/20 08:27:48;;;;;;;45.28;29.08;;;;;;;;;;5043305;28;20033;-65
2022/11/20 08:30:13;;;;;;;36.42;26.13;;;;;;;;;;5043066;28;20488;-65
2022/11/20 08:32:38;;;;;;;46.50;28.63;;;;;;;;;;5042547;28;20025;-65
2022/11/20 08:35:03;;;;;;;40.88;27.00;;;;;;;;;;5044843;28;20029;-65
2022/11/20 08:37:29;;;;;;;40.88;28.33;;;;;;;;;;5042648;28;20484;-65
2022/11/20 08:39:56;;;;;;;43.90;28.47;;;;;;;;;;5045675;28;20041;-65
2022/11/20 08:42:22;;;;;;;44.90;28.00;;;;;;;;;;5039713;28;20757;-65
2022/11/20 08:44:47;;;;;;;47.47;29.15;;;;;;;;;;5040121;28;20032;-65
2022/11/20 08:47:12;;;;;;;38.95;27.58;;;;;;;;;;5035433;28;20016;-65
2022/11/20 08:49:37;;;;;;;45.33;26.60;;;;;;;;;;5034863;28;20017;-65
2022/11/20 08:52:02;;;;;;;41.00;28.88;;;;;;;;;;5035429;28;20064;-65
2022/11/20 08:54:28;;;;;;;41.13;27.65;;;;;;;;;;5045082;28;20048;-65
2022/11/20 08:56:54;;;;;;;43.67;28.13;;;;;;;;;;5036871;28;20018;-65
2022/11/20 08:59:19;;;;;;;46.88;29.05;;;;;;;;;;5028801;28;20375;-65
2022/11/20 09:01:44;;;;;;;42.03;30.27;;;;;;;;;;5012370;28;20021;-65
2022/11/20 09:04:09;;;;;;;53.28;32.63;;;;;;;;;;5031624;28;20391;-66
2022/11/20 09:06:35;;;;;;;45.15;31.00;;;;;;;;;;5004741;28;20017;-65
2022/11/20 09:09:00;;;;;;;48.05;31.40;;;;;;;;;;5044800;28;20020;-65
2022/11/20 09:11:25;;;;;;;52.60;31.67;;;;;;;;;;5051568;28;20052;-65
2022/11/20 09:13:51;;;;;;;41.60;30.10;;;;;;;;;;5043783;28;20025;-65
2022/11/20 09:16:16;;;;;;;45.30;30.13;;;;;;;;;;5049549;28;20058;-64
2022/11/20 09:18:41;;;;;;;41.88;29.95;;;;;;;;;;5047965;28;20024;-65
2022/11/20 09:21:10;;;;;;;42.13;29.77;;;;;;;;;;5048990;28;20024;-64
2022/11/20 09:23:36;;;;;;;39.03;27.55;;;;;;;;;;5048662;28;20026;-65
2022/11/20 09:26:05;;;;;;;48.88;31.55;;;;;;;;;;5048380;28;20016;-65
2022/11/20 09:28:31;;;;;;;46.20;30.58;;;;;;;;;;5044365;28;20013;-64
2022/11/20 09:30:56;;;;;;;43.38;29.85;;;;;;;;;;5045455;28;20013;-65
2022/11/20 09:33:21;;;;;;;44.97;30.20;;;;;;;;;;5046217;28;20025;-65
2022/11/20 09:35:46;;;;;;;47.88;28.80;;;;;;;;;;5046524;28;20052;-65
2022/11/20 09:38:13;;;;;;;48.60;30.65;;;;;;;;;;5047901;28;20021;-65
2022/11/20 09:40:40;;;;;;;49.95;32.13;;;;;;;;;;5049341;28;20072;-65
2022/11/20 09:43:24;;;;;;;52.30;32.67;;;;;;;;;;5052226;28;20032;-64
2022/11/20 09:45:59;;;;;;;47.70;32.35;;;;;;;;;;5039528;28;20104;-65
2022/11/20 09:48:41;;;;;;;43.95;29.52;;;;;;;;;;5062207;28;20379;-65
2022/11/20 09:51:09;;;;;;;47.72;31.80;;;;;;;;;;5039313;28;20026;-65
2022/11/20 09:53:40;;;;;;;49.20;31.65;;;;;;;;;;5053220;28;20017;-65
2022/11/20 09:56:08;;;;;;;42.33;29.98;;;;;;;;;;5042469;28;20494;-65
2022/11/20 09:58:39;;;;;;;53.25;32.22;;;;;;;;;;5034401;28;20371;-65
2022/11/20 10:01:10;;;;;;;48.95;31.85;;;;;;;;;;5035172;28;20021;-65
2022/11/20 10:03:39;;;;;;;43.60;29.05;;;;;;;;;;5035605;28;20053;-65
2022/11/20 10:06:05;;;;;;;49.22;31.00;;;;;;;;;;5034483;28;20491;-65
2022/11/20 10:08:39;;;;;;;43.53;30.08;;;;;;;;;;5040593;28;20017;-65
2022/11/20 10:11:04;;;;;;;45.85;30.05;;;;;;;;;;5039575;28;20028;-65
2022/11/20 10:13:48;;;;;;;45.63;29.93;;;;;;;;;;5035828;28;20021;-64
2022/11/20 10:16:14;;;;;;;44.58;31.85;;;;;;;;;;5033225;28;20279;-61
2022/11/20 10:18:46;;;;;;;48.45;32.08;;;;;;;;;;5032805;28;20033;-64
2022/11/20 10:21:21;;;;;;;44.20;31.45;;;;;;;;;;5033034;28;20092;-64
2022/11/20 10:23:59;;;;;;;47.85;30.35;;;;;;;;;;5033786;28;20097;-67
2022/11/20 10:26:27;;;;;;;49.67;33.72;;;;;;;;;;5034454;28;20029;-66
2022/11/20 10:29:02;;;;;;;53.35;33.72;;;;;;;;;;5038370;28;20024;-71
2022/11/20 10:31:33;;;;;;;47.92;32.63;;;;;;;;;;5028837;28;20032;-69
2022/11/20 10:34:00;;;;;;;43.78;32.28;;;;;;;;;;5032055;28;20163;-72
2022/11/20 10:36:27;;;;;;;55.13;31.30;;;;;;;;;;5031851;28;20061;-69
2022/11/20 10:39:11;;;;;;;45.55;31.10;;;;;;;;;;5041582;28;20036;-76
2022/11/20 10:41:41;;;;;;;51.83;31.63;;;;;;;;;;5038767;28;20035;-71
2022/11/20 10:44:12;;;;;;;46.05;31.73;;;;;;;;;;5047608;28;20111;-75
2022/11/20 10:46:43;;;;;;;47.42;31.80;;;;;;;;;;5052299;28;20021;-66
2022/11/20 10:49:16;;;;;;;48.88;32.88;;;;;;;;;;5050932;28;20009;-65
2022/11/20 10:51:55;;;;;;;48.88;33.40;;;;;;;;;;5048187;28;20474;-68
2022/11/20 10:54:27;;;;;;;45.53;32.70;;;;;;;;;;5039929;28;20128;-66
2022/11/20 10:56:53;;;;;;;58.00;33.78;;;;;;;;;;5048174;28;20456;-65
2022/11/20 10:59:25;;;;;;;52.22;32.53;;;;;;;;;;5050708;28;20040;-66
2022/11/20 11:01:50;;;;;;;54.80;33.92;;;;;;;;;;5049571;28;20021;-64
2022/11/20 11:04:36;;;;;;;55.38;33.10;;;;;;;;;;5051127;28;20028;-65
2022/11/20 11:07:10;;;;;;;55.13;34.38;;;;;;;;;;5049970;28;20028;-67
2022/11/20 11:09:38;;;;;;;62.33;35.20;;;;;;;;;;5048297;28;20107;-64
2022/11/20 11:12:08;;;;;;;56.60;34.55;;;;;;;;;;5045174;28;20021;-65
2022/11/20 11:14:42;;;;;;;55.20;35.78;;;;;;;;;;5039333;28;20061;-68
2022/11/20 11:17:18;;;;;;;63.63;36.63;;;;;;;;;;5042525;28;20056;-67
2022/11/20 11:19:43;;;;;;;55.78;33.22;;;;;;;;;;5042022;28;20029;-76
2022/11/20 11:22:15;;;;;;;54.35;35.65;;;;;;;;;;5048640;28;20091;-64
2022/11/20 11:24:50;;;;;;;55.67;34.35;;;;;;;;;;5040902;28;20012;-63
2022/11/20 11:27:17;;;;;;;47.17;34.60;;;;;;;;;;5038161;28;20028;-65
2022/11/20 11:29:42;;;;;;;55.35;36.13;;;;;;;;;;5034119;28;20429;-64
2022/11/20 11:32:11;;;;;;;50.30;35.08;;;;;;;;;;5036268;28;20100;-66
2022/11/20 11:34:36;;;;;;;52.78;33.85;;;;;;;;;;5038705;28;20021;-64
2022/11/20 11:37:03;;;;;;;60.10;36.58;;;;;;;;;;5034593;28;20022;-64
2022/11/20 11:39:29;;;;;;;59.38;35.67;;;;;;;;;;5036853;28;20041;-65
2022/11/20 11:41:55;;;;;;;60.53;36.22;;;;;;;;;;5037831;28;20188;-66
2022/11/20 11:47:09;;;;;;;53.53;36.03;;;;;;;;;;5041706;28;20043;-63
2022/11/20 11:49:34;;;;;;;58.53;37.50;;;;;;;;;;5038176;28;20053;-63
2022/11/20 11:52:14;;;;;;;63.47;36.38;;;;;;;;;;5038274;28;20060;-63
2022/11/20 11:54:47;;;;;;;51.08;33.67;;;;;;;;;;5049616;28;20112;-63
2022/11/20 11:57:16;;;;;;;59.83;35.92;;;;;;;;;;5053689;28;20094;-65
2022/11/20 11:59:42;;;;;;;61.90;37.95;;;;;;;;;;5054786;28;20052;-64
2022/11/20 12:02:15;;;;;;;61.95;36.92;;;;;;;;;;5054504;28;20106;-64
2022/11/20 12:04:46;;;;;;;56.63;38.10;;;;;;;;;;5053545;28;20036;-64
2022/11/20 12:07:15;;;;;;;55.80;34.15;;;;;;;;;;5049852;28;20274;-64
2022/11/20 12:09:43;;;;;;;51.50;33.03;;;;;;;;;;5045246;28;20024;-65
2022/11/20 12:12:10;;;;;;;58.92;36.10;;;;;;;;;;5035123;28;20022;-64
2022/11/20 12:14:37;;;;;;;54.78;35.40;;;;;;;;;;5035971;28;20087;-64
2022/11/20 12:17:03;;;;;;;54.55;35.40;;;;;;;;;;5036803;28;20020;-64
2022/11/20 12:19:33;;;;;;;55.67;34.90;;;;;;;;;;5031212;28;20492;-65
2022/11/20 12:21:58;;;;;;;59.05;35.65;;;;;;;;;;5046739;28;20031;-68
2022/11/20 12:24:29;;;;;;;58.40;35.03;;;;;;;;;;5044679;28;20025;-62
2022/11/20 12:27:00;;;;;;;58.35;34.53;;;;;;;;;;5032153;28;20300;-63
2022/11/20 12:29:29;;;;;;;49.15;32.90;;;;;;;;;;5037858;28;20037;-63
2022/11/20 12:32:12;;;;;;;54.65;32.95;;;;;;;;;;5039137;28;20348;-63
2022/11/20 12:34:48;;;;;;;47.47;32.75;;;;;;;;;;5036154;28;20033;-63
2022/11/20 12:37:28;;;;;;;49.33;30.50;;;;;;;;;;5039137;28;20465;-62
2022/11/20 12:39:56;;;;;;;56.55;33.95;;;;;;;;;;5043199;28;20032;-64
2022/11/20 12:45:31;;;;;;;46.03;30.42;;;;;;;;;;5048066;28;20056;-63
2022/11/20 12:47:56;;;;;;;47.70;31.38;;;;;;;;;;5040624;28;20469;-71
2022/11/20 12:50:30;;;;;;;55.03;32.20;;;;;;;;;;5049953;28;20021;-65
2022/11/20 12:52:57;;;;;;;49.45;30.42;;;;;;;;;;5046056;28;20272;-64
2022/11/20 12:55:41;;;;;;;45.67;29.05;;;;;;;;;;5053394;28;20052;-64
2022/11/20 12:58:27;;;;;;;39.38;27.80;;;;;;;;;;5046863;28;20013;-64
2022/11/20 13:01:39;;;;;;;44.70;27.73;;;;;;;;;;5037641;28;20427;-64
2022/11/20 13:04:00;;;;;;;39.30;27.25;;;;;;;;;;5038304;28;20057;-65
2022/11/20 13:06:25;;;;;;;41.55;27.83;;;;;;;;;;5043756;28;20398;-64
2022/11/20 13:08:53;;;;;;;41.67;27.63;;;;;;;;;;5045981;28;20021;-65
2022/11/20 13:11:18;;;;;;;37.08;25.75;;;;;;;;;;5035869;28;20384;-64
2022/11/20 13:14:02;;;;;;;42.13;28.02;;;;;;;;;;5051448;28;20031;-64
2022/11/20 13:16:37;;;;;;;41.60;26.33;;;;;;;;;;5038752;28;20033;-65
2022/11/20 13:19:03;;;;;;;35.30;24.90;;;;;;;;;;5034910;28;20479;-65
2022/11/20 13:21:36;;;;;;;41.75;25.63;;;;;;;;;;5023401;28;20029;-64
2022/11/20 13:24:26;;;;;;;39.33;24.17;;;;;;;;;;5015041;28;20028;-65
2022/11/20 13:27:05;;;;;;;29.27;22.23;;;;;;;;;;5006894;28;20071;-65
2022/11/20 13:29:32;;;;;;;32.45;20.50;;;;;;;;;;5035771;28;20070;-64
2022/11/20 13:32:12;;;;;;;31.38;20.33;;;;;;;;;;5035554;28;20056;-65
2022/11/20 13:34:37;;;;;;;26.17;16.80;;;;;;;;;;5034851;28;20028;-64
2022/11/20 13:37:05;;;;;;;25.63;14.43;;;;;;;;;;5037002;28;20100;-64
2022/11/20 13:39:32;;;;;;;12.75;8.40;;;;;;;;;;5039509;28;20041;-64
2022/11/20 13:42:02;;;;;;;11.48;7.07;;;;;;;;;;5044043;28;20486;-65
2022/11/20 13:44:37;;;;;;;11.30;5.78;;;;;;;;;;5043317;28;20870;-64
2022/11/20 13:47:03;;;;;;;10.05;4.95;;;;;;;;;;5036536;28;20079;-64
2022/11/20 13:49:33;;;;;;;7.60;4.05;;;;;;;;;;5037018;28;20020;-63
2022/11/20 13:52:01;;;;;;;8.00;3.75;;;;;;;;;;5049551;28;20021;-64
2022/11/20 13:54:38;;;;;;;8.30;3.78;;;;;;;;;;5039811;28;20029;-65
2022/11/20 13:57:21;;;;;;;9.20;3.50;;;;;;;;;;5031548;28;20043;-66
2022/11/20 14:00:06;;;;;;;8.93;3.75;;;;;;;;;;5035330;28;20033;-64
2022/11/20 14:02:31;;;;;;;9.43;3.03;;;;;;;;;;5036165;28;20475;-64
2022/11/20 14:04:58;;;;;;;7.10;2.67;;;;;;;;;;5038243;28;20025;-64
2022/11/20 14:07:25;;;;;;;6.65;2.50;;;;;;;;;;5035826;28;20021;-64
2022/11/20 14:09:51;;;;;;;6.40;2.33;;;;;;;;;;5039227;28;20031;-63
2022/11/20 14:12:18;;;;;;;5.07;1.90;;;;;;;;;;5046290;28;20021;-64
2022/11/20 14:14:50;;;;;;;7.05;2.47;;;;;;;;;;5040467;28;20013;-64
2022/11/20 14:17:20;;;;;;;5.32;2.20;;;;;;;;;;5043225;28;20017;-64
2022/11/20 14:19:46;;;;;;;8.15;2.40;;;;;;;;;;5043376;28;20655;-64
2022/11/20 14:22:21;;;;;;;4.90;1.90;;;;;;;;;;5037114;28;20371;-67
2022/11/20 14:24:47;;;;;;;6.53;2.25;;;;;;;;;;5043282;28;20472;-64
2022/11/20 14:27:14;;;;;;;5.85;2.65;;;;;;;;;;5038115;28;20021;-67
2022/11/20 14:29:40;;;;;;;7.03;2.45;;;;;;;;;;5058997;28;20353;-64
2022/11/20 14:32:05;;;;;;;10.68;2.90;;;;;;;;;;5041961;28;20052;-64
2022/11/20 14:34:33;;;;;;;4.90;2.15;;;;;;;;;;5041720;28;20053;-63